createdAt,value
2018-09-09T00:00:31.150Z,100454
2018-09-09T00:01:36.302Z,100457
2018-09-09T00:02:40.953Z,100459
2018-09-09T00:03:46.108Z,100457
2018-09-09T00:04:51.257Z,100448
2018-09-09T00:05:55.839Z,100451
2018-09-09T00:07:00.981Z,100462
2018-09-09T00:08:05.853Z,100457
2018-09-09T00:09:11.009Z,100465
2018-09-09T00:10:16.135Z,100457
2018-09-09T00:11:21.325Z,100459
2018-09-09T00:12:27.084Z,100462
2018-09-09T00:13:32.289Z,100451
2018-09-09T00:14:36.977Z,100462
2018-09-09T00:15:41.925Z,100468
2018-09-09T00:16:47.081Z,100468
2018-09-09T00:17:51.939Z,100462
2018-09-09T00:18:56.342Z,100462
2018-09-09T00:20:01.237Z,100471
2018-09-09T00:21:06.154Z,100468
2018-09-09T00:22:11.721Z,100465
2018-09-09T00:23:16.322Z,100468
2018-09-09T00:24:20.898Z,100468
2018-09-09T00:25:27.094Z,100465
2018-09-09T00:26:32.525Z,100462
2018-09-09T00:27:37.428Z,100462
2018-09-09T00:28:42.668Z,100471
2018-09-09T00:29:48.116Z,100462
2018-09-09T00:30:54.008Z,100468
2018-09-09T00:31:59.435Z,100454
2018-09-09T00:33:04.869Z,100465
2018-09-09T00:34:10.577Z,100465
2018-09-09T00:35:16.020Z,100468
2018-09-09T00:36:21.525Z,100459
2018-09-09T00:37:41.040Z,100454
2018-09-09T00:38:46.453Z,100459
2018-09-09T00:39:52.186Z,100448
2018-09-09T00:40:57.333Z,100448
2018-09-09T00:42:02.205Z,100451
2018-09-09T00:43:06.879Z,100457
2018-09-09T00:44:12.322Z,100445
2018-09-09T00:45:17.752Z,100445
2018-09-09T00:46:23.574Z,100448
2018-09-09T00:47:29.006Z,100445
2018-09-09T00:48:35.106Z,100442
2018-09-09T00:49:40.311Z,100448
2018-09-09T00:50:45.536Z,100445
2018-09-09T00:51:50.996Z,100430
2018-09-09T00:52:55.643Z,100445
2018-09-09T00:54:01.069Z,100445
2018-09-09T00:55:06.607Z,100442
2018-09-09T00:56:11.737Z,100427
2018-09-09T00:57:16.902Z,100436
2018-09-09T00:58:22.709Z,100433
2018-09-09T00:59:28.141Z,100422
2018-09-09T01:00:34.041Z,100427
2018-09-09T01:01:39.623Z,100427
2018-09-09T01:02:44.767Z,100436
2018-09-09T01:03:50.564Z,100436
2018-09-09T01:04:55.779Z,100439
2018-09-09T01:06:00.748Z,100433
2018-09-09T01:07:05.891Z,100445
2018-09-09T01:08:11.426Z,100445
2018-09-09T01:09:16.397Z,100433
2018-09-09T01:10:22.076Z,100445
2018-09-09T01:11:27.569Z,100445
2018-09-09T01:12:33.128Z,100445
2018-09-09T01:13:38.325Z,100445
2018-09-09T01:14:43.541Z,100439
2018-09-09T01:15:49.237Z,100451
2018-09-09T01:16:54.378Z,100454
2018-09-09T01:17:59.561Z,100454
2018-09-09T01:19:05.153Z,100451
2018-09-09T01:20:10.033Z,100454
2018-09-09T01:21:14.937Z,100465
2018-09-09T01:22:20.237Z,100454
2018-09-09T01:23:25.391Z,100454
2018-09-09T01:24:31.391Z,100451
2018-09-09T01:25:36.542Z,100445
2018-09-09T01:26:41.693Z,100448
2018-09-09T01:27:46.990Z,100439
2018-09-09T01:28:52.173Z,100439
2018-09-09T01:29:57.609Z,100445
2018-09-09T01:31:02.743Z,100448
2018-09-09T01:32:08.192Z,100439
2018-09-09T01:33:13.359Z,100436
2018-09-09T01:34:19.247Z,100436
2018-09-09T01:35:24.522Z,100445
2018-09-09T01:36:30.221Z,100442
2018-09-09T01:37:35.663Z,100445
2018-09-09T01:38:41.105Z,100451
2018-09-09T01:39:46.886Z,100451
2018-09-09T01:40:51.751Z,100451
2018-09-09T01:41:56.663Z,100454
2018-09-09T01:43:02.087Z,100445
2018-09-09T01:44:07.333Z,100448
2018-09-09T01:45:12.265Z,100445
2018-09-09T01:46:17.753Z,100436
2018-09-09T01:47:23.235Z,100433
2018-09-09T01:48:28.949Z,100433
2018-09-09T01:49:34.467Z,100436
2018-09-09T01:50:39.963Z,100436
2018-09-09T01:51:45.457Z,100436
2018-09-09T01:52:50.347Z,100433
2018-09-09T01:53:55.519Z,100430
2018-09-09T01:55:01.242Z,100424
2018-09-09T01:56:06.104Z,100436
2018-09-09T01:57:11.565Z,100430
2018-09-09T01:58:16.681Z,100442
2018-09-09T01:59:21.865Z,100442
2018-09-09T02:00:27.427Z,100433
2018-09-09T02:01:33.060Z,100439
2018-09-09T02:02:38.500Z,100436
2018-09-09T02:03:44.289Z,100442
2018-09-09T02:04:48.888Z,100439
2018-09-09T02:05:53.672Z,100436
2018-09-09T02:06:58.542Z,100442
2018-09-09T02:08:02.920Z,100454
2018-09-09T02:09:08.423Z,100436
2018-09-09T02:10:13.819Z,100442
2018-09-09T02:11:19.296Z,100436
2018-09-09T02:12:24.182Z,100427
2018-09-09T02:13:44.536Z,100427
2018-09-09T02:14:49.964Z,100442
2018-09-09T02:15:55.823Z,100442
2018-09-09T02:17:00.430Z,100433
2018-09-09T02:18:05.864Z,100430
2018-09-09T02:19:11.294Z,100430
2018-09-09T02:20:16.750Z,100436
2018-09-09T02:21:22.175Z,100433
2018-09-09T02:22:28.050Z,100442
2018-09-09T02:23:33.229Z,100439
2018-09-09T02:24:39.025Z,100436
2018-09-09T02:25:44.620Z,100445
2018-09-09T02:26:49.945Z,100442
2018-09-09T02:27:55.447Z,100439
2018-09-09T02:29:00.604Z,100442
2018-09-09T02:30:06.033Z,100451
2018-09-09T02:31:11.539Z,100445
2018-09-09T02:32:17.054Z,100451
2018-09-09T02:33:21.943Z,100433
2018-09-09T02:34:27.277Z,100442
2018-09-09T02:35:32.426Z,100445
2018-09-09T02:36:37.972Z,100430
2018-09-09T02:37:43.124Z,100419
2018-09-09T02:38:48.552Z,100430
2018-09-09T02:39:54.283Z,100427
2018-09-09T02:40:59.230Z,100427
2018-09-09T02:42:04.460Z,100422
2018-09-09T02:43:09.588Z,100424
2018-09-09T02:44:14.459Z,100424
2018-09-09T02:45:19.046Z,100427
2018-09-09T02:46:24.613Z,100424
2018-09-09T02:47:29.478Z,100433
2018-09-09T02:48:34.389Z,100427
2018-09-09T02:49:39.839Z,100430
2018-09-09T02:50:45.374Z,100430
2018-09-09T02:51:50.994Z,100422
2018-09-09T02:52:55.938Z,100436
2018-09-09T02:54:01.107Z,100433
2018-09-09T02:55:06.413Z,100436
2018-09-09T02:56:11.869Z,100439
2018-09-09T02:57:17.296Z,100436
2018-09-09T02:58:22.985Z,100439
2018-09-09T02:59:28.480Z,100433
2018-09-09T03:00:34.156Z,100433
2018-09-09T03:01:39.094Z,100439
2018-09-09T03:02:44.251Z,100436
2018-09-09T03:03:49.816Z,100442
2018-09-09T03:04:55.316Z,100448
2018-09-09T03:06:00.251Z,100442
2018-09-09T03:07:05.763Z,100448
2018-09-09T03:08:10.644Z,100442
2018-09-09T03:09:16.134Z,100430
2018-09-09T03:10:21.595Z,100430
2018-09-09T03:11:27.017Z,100430
2018-09-09T03:12:32.664Z,100448
2018-09-09T03:13:38.110Z,100442
2018-09-09T03:14:43.251Z,100448
2018-09-09T03:15:49.177Z,100442
2018-09-09T03:16:54.028Z,100448
2018-09-09T03:17:58.616Z,100439
2018-09-09T03:19:04.467Z,100433
2018-09-09T03:20:09.685Z,100433
2018-09-09T03:21:14.842Z,100445
2018-09-09T03:22:20.009Z,100445
2018-09-09T03:23:25.213Z,100442
2018-09-09T03:24:30.618Z,100436
2018-09-09T03:25:36.099Z,100445
2018-09-09T03:26:40.684Z,100448
2018-09-09T03:27:46.465Z,100439
2018-09-09T03:28:51.921Z,100448
2018-09-09T03:29:57.134Z,100442
2018-09-09T03:31:02.820Z,100445
2018-09-09T03:32:07.750Z,100439
2018-09-09T03:33:12.911Z,100442
2018-09-09T03:34:17.933Z,100445
2018-09-09T03:35:23.392Z,100442
2018-09-09T03:36:28.993Z,100436
2018-09-09T03:37:34.188Z,100436
2018-09-09T03:38:39.423Z,100439
2018-09-09T03:39:44.982Z,100442
2018-09-09T03:40:49.634Z,100436
2018-09-09T03:41:55.100Z,100442
2018-09-09T03:43:00.487Z,100442
2018-09-09T03:44:05.927Z,100442
2018-09-09T03:45:10.858Z,100442
2018-09-09T03:46:15.979Z,100439
2018-09-09T03:47:21.444Z,100433
2018-09-09T03:48:27.012Z,100439
2018-09-09T03:49:32.162Z,100433
2018-09-09T03:50:37.372Z,100439
2018-09-09T03:51:42.646Z,100433
2018-09-09T03:52:47.509Z,100436
2018-09-09T03:53:52.379Z,100433
2018-09-09T03:54:57.779Z,100442
2018-09-09T03:56:02.372Z,100442
2018-09-09T03:57:07.320Z,100433
2018-09-09T03:58:12.774Z,100436
2018-09-09T03:59:17.914Z,100454
2018-09-09T04:00:23.419Z,100442
2018-09-09T04:01:43.282Z,100439
2018-09-09T04:02:48.150Z,100445
2018-09-09T04:03:53.368Z,100451
2018-09-09T04:04:58.837Z,100442
2018-09-09T04:06:03.706Z,100451
2018-09-09T04:07:09.250Z,100433
2018-09-09T04:08:14.413Z,100442
2018-09-09T04:09:19.068Z,100451
2018-09-09T04:10:24.537Z,100451
2018-09-09T04:11:29.488Z,100439
2018-09-09T04:12:34.907Z,100439
2018-09-09T04:13:40.366Z,100445
2018-09-09T04:14:45.858Z,100439
2018-09-09T04:15:51.640Z,100445
2018-09-09T04:16:57.180Z,100439
2018-09-09T04:18:02.605Z,100439
2018-09-09T04:19:07.933Z,100445
2018-09-09T04:20:13.386Z,100439
2018-09-09T04:21:18.246Z,100454
2018-09-09T04:22:24.025Z,100442
2018-09-09T04:23:28.892Z,100445
2018-09-09T04:24:34.001Z,100439
2018-09-09T04:25:39.290Z,100439
2018-09-09T04:26:44.498Z,100442
2018-09-09T04:27:50.330Z,100439
2018-09-09T04:28:55.767Z,100445
2018-09-09T04:30:01.237Z,100433
2018-09-09T04:31:06.664Z,100427
2018-09-09T04:32:11.808Z,100427
2018-09-09T04:33:16.711Z,100430
2018-09-09T04:34:22.191Z,100427
2018-09-09T04:35:27.666Z,100427
2018-09-09T04:36:33.053Z,100436
2018-09-09T04:37:37.912Z,100424
2018-09-09T04:38:42.519Z,100427
2018-09-09T04:39:48.196Z,100422
2018-09-09T04:40:53.725Z,100413
2018-09-09T04:41:59.183Z,100422
2018-09-09T04:43:04.984Z,100410
2018-09-09T04:44:10.415Z,100407
2018-09-09T04:45:15.849Z,100410
2018-09-09T04:46:21.676Z,100404
2018-09-09T04:47:27.078Z,100401
2018-09-09T04:48:32.289Z,100410
2018-09-09T04:49:37.770Z,100413
2018-09-09T04:50:43.203Z,100422
2018-09-09T04:51:49.001Z,100430
2018-09-09T04:52:53.898Z,100442
2018-09-09T04:53:59.354Z,100442
2018-09-09T04:55:04.586Z,100436
2018-09-09T04:56:09.453Z,100430
2018-09-09T04:57:14.321Z,100439
2018-09-09T04:58:19.825Z,100433
2018-09-09T04:59:25.072Z,100436
2018-09-09T05:00:30.156Z,100433
2018-09-09T05:01:35.076Z,100427
2018-09-09T05:02:39.947Z,100430
2018-09-09T05:03:45.638Z,100436
2018-09-09T05:04:51.058Z,100442
2018-09-09T05:05:56.209Z,100436
2018-09-09T05:07:01.348Z,100436
2018-09-09T05:08:06.290Z,100445
2018-09-09T05:09:11.722Z,100445
2018-09-09T05:10:17.121Z,100445
2018-09-09T05:11:22.324Z,100445
2018-09-09T05:12:27.153Z,100448
2018-09-09T05:13:32.298Z,100451
2018-09-09T05:14:37.440Z,100442
2018-09-09T05:15:43.133Z,100462
2018-09-09T05:16:48.584Z,100462
2018-09-09T05:17:53.437Z,100468
2018-09-09T05:18:59.310Z,100456
2018-09-09T05:20:03.664Z,100462
2018-09-09T05:21:08.803Z,100462
2018-09-09T05:22:13.958Z,100474
2018-09-09T05:23:18.874Z,100474
2018-09-09T05:24:24.014Z,100479
2018-09-09T05:25:43.958Z,100476
2018-09-09T05:26:49.392Z,100471
2018-09-09T05:27:55.075Z,100482
2018-09-09T05:29:00.280Z,100476
2018-09-09T05:30:05.435Z,100484
2018-09-09T05:31:10.397Z,100484
2018-09-09T05:32:14.712Z,100487
2018-09-09T05:33:19.912Z,100479
2018-09-09T05:34:25.799Z,100490
2018-09-09T05:35:30.950Z,100484
2018-09-09T05:36:36.242Z,100482
2018-09-09T05:37:41.723Z,100484
2018-09-09T05:38:47.213Z,100487
2018-09-09T05:39:52.244Z,100482
2018-09-09T05:40:57.502Z,100487
2018-09-09T05:42:02.450Z,100484
2018-09-09T05:43:07.422Z,100484
2018-09-09T05:44:12.572Z,100490
2018-09-09T05:45:17.753Z,100487
2018-09-09T05:46:22.642Z,100479
2018-09-09T05:47:27.785Z,100490
2018-09-09T05:48:33.372Z,100487
2018-09-09T05:49:38.319Z,100496
2018-09-09T05:50:43.754Z,100499
2018-09-09T05:51:49.566Z,100493
2018-09-09T05:52:54.743Z,100499
2018-09-09T05:54:00.379Z,100499
2018-09-09T05:55:05.964Z,100499
2018-09-09T05:56:11.163Z,100496
2018-09-09T05:57:16.027Z,100493
2018-09-09T05:58:21.857Z,100496
2018-09-09T05:59:27.074Z,100502
2018-09-09T06:00:32.399Z,100496
2018-09-09T06:01:37.819Z,100496
2018-09-09T06:02:43.296Z,100496
2018-09-09T06:03:48.834Z,100493
2018-09-09T06:04:54.280Z,100493
2018-09-09T06:05:59.525Z,100490
2018-09-09T06:07:04.633Z,100502
2018-09-09T06:08:09.497Z,100502
2018-09-09T06:09:14.692Z,100493
2018-09-09T06:10:20.094Z,100499
2018-09-09T06:11:25.534Z,100505
2018-09-09T06:12:31.514Z,100499
2018-09-09T06:13:36.375Z,100508
2018-09-09T06:14:41.319Z,100508
2018-09-09T06:15:46.663Z,100508
2018-09-09T06:16:51.876Z,100496
2018-09-09T06:17:57.031Z,100514
2018-09-09T06:19:02.191Z,100505
2018-09-09T06:20:07.061Z,100511
2018-09-09T06:21:12.217Z,100514
2018-09-09T06:22:17.484Z,100514
2018-09-09T06:23:22.644Z,100522
2018-09-09T06:24:28.419Z,100514
2018-09-09T06:25:33.343Z,100511
2018-09-09T06:26:38.771Z,100517
2018-09-09T06:27:43.884Z,100511
2018-09-09T06:28:49.364Z,100508
2018-09-09T06:29:54.799Z,100511
2018-09-09T06:31:00.502Z,100511
2018-09-09T06:32:05.468Z,100522
2018-09-09T06:33:10.620Z,100508
2018-09-09T06:34:16.351Z,100528
2018-09-09T06:35:21.907Z,100517
2018-09-09T06:36:27.503Z,100511
2018-09-09T06:37:32.687Z,100522
2018-09-09T06:38:37.577Z,100514
2018-09-09T06:39:42.996Z,100517
2018-09-09T06:40:47.891Z,100517
2018-09-09T06:41:53.091Z,100519
2018-09-09T06:42:58.635Z,100508
2018-09-09T06:44:03.533Z,100514
2018-09-09T06:45:08.696Z,100505
2018-09-09T06:46:14.184Z,100505
2018-09-09T06:47:19.616Z,100508
2018-09-09T06:49:44.613Z,100502
2018-09-09T06:50:50.088Z,100508
2018-09-09T06:51:55.641Z,100519
2018-09-09T06:53:01.070Z,100511
2018-09-09T06:54:06.048Z,100511
2018-09-09T06:55:11.335Z,100519
2018-09-09T06:56:16.769Z,100525
2018-09-09T06:57:22.281Z,100511
2018-09-09T06:58:27.777Z,100514
2018-09-09T06:59:32.649Z,100508
2018-09-09T07:00:38.114Z,100508
2018-09-09T07:01:43.198Z,100508
2018-09-09T07:02:48.351Z,100517
2018-09-09T07:03:53.955Z,100514
2018-09-09T07:04:59.391Z,100511
2018-09-09T07:06:04.551Z,100514
2018-09-09T07:07:10.112Z,100514
2018-09-09T07:08:15.298Z,100519
2018-09-09T07:09:19.596Z,100514
2018-09-09T07:10:25.348Z,100522
2018-09-09T07:11:31.094Z,100517
2018-09-09T07:12:37.290Z,100522
2018-09-09T07:13:42.499Z,100522
2018-09-09T07:14:47.701Z,100514
2018-09-09T07:15:53.335Z,100519
2018-09-09T07:16:58.644Z,100519
2018-09-09T07:18:03.845Z,100528
2018-09-09T07:19:09.133Z,100525
2018-09-09T07:20:14.887Z,100528
2018-09-09T07:21:19.749Z,100534
2018-09-09T07:22:25.141Z,100525
2018-09-09T07:23:30.621Z,100531
2018-09-09T07:24:36.171Z,100531
2018-09-09T07:25:41.671Z,100540
2018-09-09T07:26:46.893Z,100534
2018-09-09T07:27:52.283Z,100537
2018-09-09T07:28:57.163Z,100531
2018-09-09T07:30:02.091Z,100528
2018-09-09T07:31:07.583Z,100540
2018-09-09T07:32:13.190Z,100534
2018-09-09T07:33:18.332Z,100534
2018-09-09T07:34:23.950Z,100543
2018-09-09T07:35:29.288Z,100543
2018-09-09T07:36:34.256Z,100546
2018-09-09T07:37:39.688Z,100537
2018-09-09T07:38:45.174Z,100540
2018-09-09T07:39:51.117Z,100537
2018-09-09T07:40:55.980Z,100537
2018-09-09T07:42:01.210Z,100540
2018-09-09T07:43:06.454Z,100537
2018-09-09T07:44:11.324Z,100543
2018-09-09T07:45:16.519Z,100546
2018-09-09T07:46:21.853Z,100552
2018-09-09T07:47:26.303Z,100552
2018-09-09T07:48:32.235Z,100549
2018-09-09T07:49:37.711Z,100554
2018-09-09T07:50:43.038Z,100543
2018-09-09T07:51:48.949Z,100540
2018-09-09T07:52:53.811Z,100554
2018-09-09T07:53:58.964Z,100549
2018-09-09T07:55:04.687Z,100554
2018-09-09T07:56:09.903Z,100554
2018-09-09T07:57:15.058Z,100552
2018-09-09T07:58:20.178Z,100560
2018-09-09T07:59:25.345Z,100552
2018-09-09T08:00:31.199Z,100552
2018-09-09T08:01:36.448Z,100560
2018-09-09T08:02:41.901Z,100557
2018-09-09T08:03:47.454Z,100549
2018-09-09T08:04:52.611Z,100560
2018-09-09T08:05:58.119Z,100558
2018-09-09T08:07:03.480Z,100549
2018-09-09T08:08:08.368Z,100558
2018-09-09T08:09:13.567Z,100560
2018-09-09T08:10:19.118Z,100558
2018-09-09T08:11:24.268Z,100552
2018-09-09T08:12:29.308Z,100546
2018-09-09T08:13:34.465Z,100555
2018-09-09T08:14:39.933Z,100555
2018-09-09T08:15:45.786Z,100558
2018-09-09T08:16:51.239Z,100560
2018-09-09T08:17:56.477Z,100555
2018-09-09T08:19:01.690Z,100549
2018-09-09T08:20:06.858Z,100552
2018-09-09T08:21:11.733Z,100558
2018-09-09T08:22:17.152Z,100546
2018-09-09T08:23:22.016Z,100552
2018-09-09T08:24:26.770Z,100546
2018-09-09T08:25:32.320Z,100555
2018-09-09T08:26:37.193Z,100549
2018-09-09T08:27:42.871Z,100566
2018-09-09T08:28:47.589Z,100549
2018-09-09T08:29:52.440Z,100555
2018-09-09T08:30:57.557Z,100552
2018-09-09T08:32:02.175Z,100561
2018-09-09T08:33:06.818Z,100561
2018-09-09T08:34:12.216Z,100555
2018-09-09T08:35:17.400Z,100563
2018-09-09T08:36:22.276Z,100555
2018-09-09T08:37:28.009Z,100563
2018-09-09T08:38:33.161Z,100563
2018-09-09T08:39:38.784Z,100563
2018-09-09T08:40:43.647Z,100563
2018-09-09T08:41:49.087Z,100566
2018-09-09T08:42:54.235Z,100558
2018-09-09T08:43:59.159Z,100566
2018-09-09T08:45:04.327Z,100561
2018-09-09T08:46:09.783Z,100561
2018-09-09T08:47:15.268Z,100558
2018-09-09T08:48:20.757Z,100564
2018-09-09T08:49:25.735Z,100569
2018-09-09T08:50:31.232Z,100572
2018-09-09T08:51:36.492Z,100561
2018-09-09T08:52:41.647Z,100566
2018-09-09T08:53:47.141Z,100569
2018-09-09T08:54:53.037Z,100575
2018-09-09T08:55:57.920Z,100564
2018-09-09T08:57:02.220Z,100564
2018-09-09T08:58:08.149Z,100561
2018-09-09T08:59:13.309Z,100564
2018-09-09T09:00:18.483Z,100569
2018-09-09T09:01:23.881Z,100567
2018-09-09T09:02:29.339Z,100561
2018-09-09T09:03:34.461Z,100558
2018-09-09T09:04:39.628Z,100561
2018-09-09T09:05:45.061Z,100558
2018-09-09T09:06:50.900Z,100558
2018-09-09T09:07:56.725Z,100555
2018-09-09T09:09:01.695Z,100567
2018-09-09T09:10:06.527Z,100555
2018-09-09T09:11:11.976Z,100558
2018-09-09T09:12:17.129Z,100552
2018-09-09T09:13:22.532Z,100558
2018-09-09T09:14:27.694Z,100549
2018-09-09T09:15:33.172Z,100552
2018-09-09T09:16:38.526Z,100552
2018-09-09T09:17:44.005Z,100549
2018-09-09T09:18:49.555Z,100558
2018-09-09T09:19:54.709Z,100555
2018-09-09T09:21:00.165Z,100546
2018-09-09T09:22:05.514Z,100549
2018-09-09T09:23:10.691Z,100546
2018-09-09T09:24:15.847Z,100540
2018-09-09T09:25:21.548Z,100552
2018-09-09T09:26:26.410Z,100538
2018-09-09T09:27:32.022Z,100538
2018-09-09T09:28:36.726Z,100543
2018-09-09T09:29:41.595Z,100540
2018-09-09T09:30:47.329Z,100538
2018-09-09T09:31:52.929Z,100538
2018-09-09T09:32:58.363Z,100532
2018-09-09T09:34:03.765Z,100520
2018-09-09T09:35:08.919Z,100529
2018-09-09T09:36:14.075Z,100526
2018-09-09T09:37:19.462Z,100532
2018-09-09T09:38:24.643Z,100526
2018-09-09T09:39:30.319Z,100526
2018-09-09T09:40:35.945Z,100529
2018-09-09T09:41:40.541Z,100517
2018-09-09T09:42:46.098Z,100526
2018-09-09T09:43:51.548Z,100526
2018-09-09T09:44:56.875Z,100520
2018-09-09T09:46:01.528Z,100523
2018-09-09T09:47:05.931Z,100517
2018-09-09T09:48:11.149Z,100514
2018-09-09T09:49:16.614Z,100517
2018-09-09T09:50:21.804Z,100520
2018-09-09T09:51:27.754Z,100526
2018-09-09T09:52:32.629Z,100517
2018-09-09T09:53:38.349Z,100523
2018-09-09T09:54:44.083Z,100529
2018-09-09T09:55:48.938Z,100532
2018-09-09T09:56:53.894Z,100535
2018-09-09T09:57:59.469Z,100523
2018-09-09T09:59:04.618Z,100523
2018-09-09T10:00:10.168Z,100526
2018-09-09T10:01:15.143Z,100529
2018-09-09T10:02:20.590Z,100520
2018-09-09T10:03:26.685Z,100535
2018-09-09T10:04:32.044Z,100520
2018-09-09T10:05:36.911Z,100514
2018-09-09T10:06:42.382Z,100523
2018-09-09T10:07:47.526Z,100520
2018-09-09T10:08:52.672Z,100529
2018-09-09T10:09:58.565Z,100526
2018-09-09T10:11:03.735Z,100529
2018-09-09T10:12:08.956Z,100523
2018-09-09T10:13:14.366Z,100514
2018-09-09T10:14:19.521Z,100520
2018-09-09T10:15:24.178Z,100523
2018-09-09T10:16:44.237Z,100520
2018-09-09T10:17:49.409Z,100526
2018-09-09T10:18:54.954Z,100529
2018-09-09T10:20:00.105Z,100532
2018-09-09T10:21:04.687Z,100523
2018-09-09T10:22:10.025Z,100538
2018-09-09T10:23:14.616Z,100517
2018-09-09T10:24:19.492Z,100535
2018-09-09T10:25:24.497Z,100535
2018-09-09T10:26:29.084Z,100532
2018-09-09T10:27:34.827Z,100526
2018-09-09T10:28:39.448Z,100523
2018-09-09T10:29:44.926Z,100526
2018-09-09T10:30:50.326Z,100529
2018-09-09T10:31:55.575Z,100523
2018-09-09T10:33:01.027Z,100526
2018-09-09T10:34:05.581Z,100512
2018-09-09T10:35:11.036Z,100514
2018-09-09T10:36:15.966Z,100514
2018-09-09T10:37:21.365Z,100520
2018-09-09T10:38:26.790Z,100526
2018-09-09T10:39:32.759Z,100526
2018-09-09T10:40:37.900Z,100526
2018-09-09T10:41:43.357Z,100532
2018-09-09T10:42:49.062Z,100526
2018-09-09T10:43:54.215Z,100526
2018-09-09T10:44:59.427Z,100517
2018-09-09T10:46:04.959Z,100517
2018-09-09T10:47:11.226Z,100520
2018-09-09T10:48:16.638Z,100523
2018-09-09T10:49:22.683Z,100517
2018-09-09T10:50:28.114Z,100523
2018-09-09T10:51:33.895Z,100523
2018-09-09T10:52:39.073Z,100535
2018-09-09T10:53:43.929Z,100526
2018-09-09T10:54:49.623Z,100526
2018-09-09T10:55:54.809Z,100535
2018-09-09T10:56:59.678Z,100532
2018-09-09T10:58:05.142Z,100523
2018-09-09T10:59:09.726Z,100526
2018-09-09T11:00:14.675Z,100523
2018-09-09T11:01:20.172Z,100526
2018-09-09T11:02:24.773Z,100529
2018-09-09T11:03:30.551Z,100529
2018-09-09T11:04:35.444Z,100523
2018-09-09T11:05:40.023Z,100538
2018-09-09T11:06:45.883Z,100529
2018-09-09T11:07:51.378Z,100526
2018-09-09T11:08:56.537Z,100526
2018-09-09T11:10:02.023Z,100523
2018-09-09T11:11:07.171Z,100532
2018-09-09T11:12:12.374Z,100532
2018-09-09T11:13:18.223Z,100529
2018-09-09T11:14:22.809Z,100532
2018-09-09T11:15:28.371Z,100526
2018-09-09T11:16:33.520Z,100529
2018-09-09T11:17:38.370Z,100529
2018-09-09T11:18:43.773Z,100523
2018-09-09T11:19:49.219Z,100529
2018-09-09T11:20:54.378Z,100538
2018-09-09T11:21:59.943Z,100538
2018-09-09T11:23:05.264Z,100532
2018-09-09T11:24:10.638Z,100526
2018-09-09T11:25:16.763Z,100532
2018-09-09T11:26:22.228Z,100532
2018-09-09T11:27:27.509Z,100535
2018-09-09T11:28:33.033Z,100523
2018-09-09T11:29:37.597Z,100532
2018-09-09T11:30:43.066Z,100541
2018-09-09T11:31:48.244Z,100532
2018-09-09T11:32:52.854Z,100523
2018-09-09T11:33:58.284Z,100532
2018-09-09T11:35:02.634Z,100535
2018-09-09T11:36:07.301Z,100529
2018-09-09T11:37:13.272Z,100529
2018-09-09T11:38:18.731Z,100535
2018-09-09T11:39:23.904Z,100523
2018-09-09T11:40:43.775Z,100532
2018-09-09T11:41:49.281Z,100532
2018-09-09T11:42:54.726Z,100532
2018-09-09T11:43:59.921Z,100529
2018-09-09T11:45:04.802Z,100538
2018-09-09T11:46:10.091Z,100538
2018-09-09T11:47:14.746Z,100535
2018-09-09T11:48:19.923Z,100532
2018-09-09T11:49:25.072Z,100538
2018-09-09T11:50:30.030Z,100532
2018-09-09T11:51:35.890Z,100541
2018-09-09T11:52:41.055Z,100538
2018-09-09T11:53:46.508Z,100538
2018-09-09T11:54:51.794Z,100532
2018-09-09T11:55:57.224Z,100535
2018-09-09T11:57:02.218Z,100538
2018-09-09T11:58:08.008Z,100535
2018-09-09T11:59:13.517Z,100550
2018-09-09T12:00:18.491Z,100544
2018-09-09T12:01:24.194Z,100544
2018-09-09T12:02:28.822Z,100544
2018-09-09T12:03:34.670Z,100538
2018-09-09T12:04:39.856Z,100550
2018-09-09T12:05:45.282Z,100541
2018-09-09T12:06:51.010Z,100538
2018-09-09T12:07:56.440Z,100547
2018-09-09T12:09:01.638Z,100544
2018-09-09T12:10:06.366Z,100547
2018-09-09T12:11:11.533Z,100544
2018-09-09T12:12:16.611Z,100541
2018-09-09T12:13:21.442Z,100544
2018-09-09T12:14:26.909Z,100532
2018-09-09T12:15:31.645Z,100544
2018-09-09T12:16:36.825Z,100544
2018-09-09T12:17:42.257Z,100529
2018-09-09T12:18:48.039Z,100541
2018-09-09T12:19:52.627Z,100538
2018-09-09T12:20:58.058Z,100535
2018-09-09T12:22:03.595Z,100541
2018-09-09T12:23:08.754Z,100535
2018-09-09T12:24:13.642Z,100547
2018-09-09T12:25:19.512Z,100550
2018-09-09T12:26:24.421Z,100550
2018-09-09T12:27:30.104Z,100550
2018-09-09T12:28:35.616Z,100535
2018-09-09T12:29:40.798Z,100538
2018-09-09T12:30:45.672Z,100535
2018-09-09T12:31:50.816Z,100547
2018-09-09T12:32:56.341Z,100544
2018-09-09T12:34:01.897Z,100535
2018-09-09T12:35:07.043Z,100535
2018-09-09T12:36:12.253Z,100532
2018-09-09T12:37:17.666Z,100547
2018-09-09T12:38:22.827Z,100535
2018-09-09T12:39:29.033Z,100535
2018-09-09T12:40:34.360Z,100541
2018-09-09T12:41:39.512Z,100538
2018-09-09T12:42:45.043Z,100529
2018-09-09T12:43:50.286Z,100535
2018-09-09T12:44:55.494Z,100527
2018-09-09T12:46:01.176Z,100530
2018-09-09T12:47:06.273Z,100527
2018-09-09T12:48:11.556Z,100524
2018-09-09T12:49:15.825Z,100521
2018-09-09T12:50:20.979Z,100530
2018-09-09T12:51:41.147Z,100524
2018-09-09T12:52:45.806Z,100515
2018-09-09T12:53:50.656Z,100524
2018-09-09T12:54:55.677Z,100512
2018-09-09T12:56:01.183Z,100521
2018-09-09T12:57:05.776Z,100515
2018-09-09T12:58:11.500Z,100530
2018-09-09T12:59:17.012Z,100509
2018-09-09T13:00:22.276Z,100524
2018-09-09T13:01:27.843Z,100521
2018-09-09T13:02:32.729Z,100515
2018-09-09T13:03:38.561Z,100515
2018-09-09T13:04:43.198Z,100521
2018-09-09T13:05:48.377Z,100512
2018-09-09T13:06:53.771Z,100509
2018-09-09T13:07:58.644Z,100521
2018-09-09T13:09:04.074Z,100512
2018-09-09T13:10:10.006Z,100515
2018-09-09T13:11:14.376Z,100518
2018-09-09T13:12:19.546Z,100515
2018-09-09T13:13:25.247Z,100515
2018-09-09T13:14:30.680Z,100518
2018-09-09T13:15:36.527Z,100518
2018-09-09T13:16:41.103Z,100515
2018-09-09T13:17:46.534Z,100515
2018-09-09T13:18:51.934Z,100515
2018-09-09T13:19:57.102Z,100521
2018-09-09T13:21:02.058Z,100512
2018-09-09T13:22:07.326Z,100509
2018-09-09T13:23:12.195Z,100512
2018-09-09T13:24:17.061Z,100515
2018-09-09T13:25:22.743Z,100503
2018-09-09T13:26:27.837Z,100500
2018-09-09T13:27:33.598Z,100506
2018-09-09T13:28:38.185Z,100503
2018-09-09T13:29:43.623Z,100506
2018-09-09T13:30:49.217Z,100506
2018-09-09T13:31:54.399Z,100512
2018-09-09T13:32:59.832Z,100503
2018-09-09T13:34:05.654Z,100501
2018-09-09T13:35:10.525Z,100501
2018-09-09T13:36:15.393Z,100506
2018-09-09T13:37:21.174Z,100515